sensor_id;sensor_type;location;lat;lon;timestamp;temperature;humidity
72905;DHT22;61048;52.162;4.516;2022-09-01T00:01:36;21.90;52.20
72905;DHT22;61048;52.162;4.516;2022-09-01T00:04:07;21.90;52.10
72905;DHT22;61048;52.162;4.516;2022-09-01T00:06:34;21.90;52.20
72905;DHT22;61048;52.162;4.516;2022-09-01T00:09:05;21.90;52.10
72905;DHT22;61048;52.162;4.516;2022-09-01T00:11:32;21.90;52.10
72905;DHT22;61048;52.162;4.516;2022-09-01T00:14:02;21.90;52.20
72905;DHT22;61048;52.162;4.516;2022-09-01T00:16:31;21.90;52.20
72905;DHT22;61048;52.162;4.516;2022-09-01T00:18:58;21.90;52.10
72905;DHT22;61048;52.162;4.516;2022-09-01T00:21:28;21.90;52.20
72905;DHT22;61048;52.162;4.516;2022-09-01T00:23:55;21.90;52.20
72905;DHT22;61048;52.162;4.516;2022-09-01T00:26:22;21.90;52.30
72905;DHT22;61048;52.162;4.516;2022-09-01T00:28:49;21.90;52.30
72905;DHT22;61048;52.162;4.516;2022-09-01T00:31:18;21.90;52.30
72905;DHT22;61048;52.162;4.516;2022-09-01T00:33:46;21.90;52.40
72905;DHT22;61048;52.162;4.516;2022-09-01T00:36:13;21.90;52.40
72905;DHT22;61048;52.162;4.516;2022-09-01T00:38:40;21.90;52.40
72905;DHT22;61048;52.162;4.516;2022-09-01T00:41:07;21.90;52.40
72905;DHT22;61048;52.162;4.516;2022-09-01T00:43:39;21.90;52.40
72905;DHT22;61048;52.162;4.516;2022-09-01T00:46:10;21.90;52.30
72905;DHT22;61048;52.162;4.516;2022-09-01T00:48:39;21.90;52.40
72905;DHT22;61048;52.162;4.516;2022-09-01T00:51:07;21.90;52.40
72905;DHT22;61048;52.162;4.516;2022-09-01T00:53:37;21.90;52.40
72905;DHT22;61048;52.162;4.516;2022-09-01T00:56:06;21.90;52.40
72905;DHT22;61048;52.162;4.516;2022-09-01T00:58:33;21.90;52.40
72905;DHT22;61048;52.162;4.516;2022-09-01T01:01:01;21.90;52.40
72905;DHT22;61048;52.162;4.516;2022-09-01T01:03:28;21.90;52.40
72905;DHT22;61048;52.162;4.516;2022-09-01T01:05:59;21.90;52.50
72905;DHT22;61048;52.162;4.516;2022-09-01T01:08:29;21.90;52.40
72905;DHT22;61048;52.162;4.516;2022-09-01T01:10:58;21.90;52.40
72905;DHT22;61048;52.162;4.516;2022-09-01T01:13:25;21.90;52.40
72905;DHT22;61048;52.162;4.516;2022-09-01T01:16:01;21.90;52.50
72905;DHT22;61048;52.162;4.516;2022-09-01T01:18:28;21.90;52.50
72905;DHT22;61048;52.162;4.516;2022-09-01T01:21:01;21.90;52.60
72905;DHT22;61048;52.162;4.516;2022-09-01T01:23:50;21.90;52.60
72905;DHT22;61048;52.162;4.516;2022-09-01T01:26:19;21.90;52.60
72905;DHT22;61048;52.162;4.516;2022-09-01T01:28:46;21.90;52.60
72905;DHT22;61048;52.162;4.516;2022-09-01T01:31:16;21.90;52.60
72905;DHT22;61048;52.162;4.516;2022-09-01T01:33:49;21.90;52.70
72905;DHT22;61048;52.162;4.516;2022-09-01T01:36:20;21.90;52.70
72905;DHT22;61048;52.162;4.516;2022-09-01T01:38:55;21.90;52.60
72905;DHT22;61048;52.162;4.516;2022-09-01T01:41:29;21.90;52.70
72905;DHT22;61048;52.162;4.516;2022-09-01T01:43:58;21.90;52.70
72905;DHT22;61048;52.162;4.516;2022-09-01T01:46:27;21.90;52.70
72905;DHT22;61048;52.162;4.516;2022-09-01T01:48:54;21.90;52.70
72905;DHT22;61048;52.162;4.516;2022-09-01T01:51:21;21.90;52.70
72905;DHT22;61048;52.162;4.516;2022-09-01T01:53:52;21.90;52.70
72905;DHT22;61048;52.162;4.516;2022-09-01T01:56:21;21.90;52.70
72905;DHT22;61048;52.162;4.516;2022-09-01T01:58:51;21.90;52.80
72905;DHT22;61048;52.162;4.516;2022-09-01T02:01:21;21.90;52.70
72905;DHT22;61048;52.162;4.516;2022-09-01T02:03:48;21.90;52.80
72905;DHT22;61048;52.162;4.516;2022-09-01T02:06:17;21.90;52.80
72905;DHT22;61048;52.162;4.516;2022-09-01T02:08:49;21.90;52.80
72905;DHT22;61048;52.162;4.516;2022-09-01T02:11:17;21.90;52.80
72905;DHT22;61048;52.162;4.516;2022-09-01T02:13:44;21.90;52.80
72905;DHT22;61048;52.162;4.516;2022-09-01T02:16:12;21.90;52.90
72905;DHT22;61048;52.162;4.516;2022-09-01T02:18:43;21.90;52.80
72905;DHT22;61048;52.162;4.516;2022-09-01T02:21:13;21.90;52.90
72905;DHT22;61048;52.162;4.516;2022-09-01T02:23:45;21.90;52.90
72905;DHT22;61048;52.162;4.516;2022-09-01T02:26:14;21.80;52.90
72905;DHT22;61048;52.162;4.516;2022-09-01T02:28:44;21.80;52.90
72905;DHT22;61048;52.162;4.516;2022-09-01T02:31:15;21.80;52.90
72905;DHT22;61048;52.162;4.516;2022-09-01T02:33:45;21.80;53.00
72905;DHT22;61048;52.162;4.516;2022-09-01T02:36:15;21.80;52.90
72905;DHT22;61048;52.162;4.516;2022-09-01T02:38:44;21.80;52.90
72905;DHT22;61048;52.162;4.516;2022-09-01T02:41:14;21.80;53.00
72905;DHT22;61048;52.162;4.516;2022-09-01T02:43:47;21.80;53.00
72905;DHT22;61048;52.162;4.516;2022-09-01T02:46:16;21.80;53.00
72905;DHT22;61048;52.162;4.516;2022-09-01T02:48:44;21.80;53.00
72905;DHT22;61048;52.162;4.516;2022-09-01T02:51:18;21.80;53.00
72905;DHT22;61048;52.162;4.516;2022-09-01T02:53:46;21.80;53.00
72905;DHT22;61048;52.162;4.516;2022-09-01T02:56:17;21.80;53.00
72905;DHT22;61048;52.162;4.516;2022-09-01T02:58:45;21.80;53.00
72905;DHT22;61048;52.162;4.516;2022-09-01T03:01:13;21.80;53.10
72905;DHT22;61048;52.162;4.516;2022-09-01T03:03:43;21.80;53.10
72905;DHT22;61048;52.162;4.516;2022-09-01T03:06:09;21.80;53.10
72905;DHT22;61048;52.162;4.516;2022-09-01T03:08:37;21.80;53.10
72905;DHT22;61048;52.162;4.516;2022-09-01T03:11:05;21.80;53.20
72905;DHT22;61048;52.162;4.516;2022-09-01T03:13:36;21.80;53.20
72905;DHT22;61048;52.162;4.516;2022-09-01T03:16:03;21.80;53.20
72905;DHT22;61048;52.162;4.516;2022-09-01T03:18:30;21.80;53.30
72905;DHT22;61048;52.162;4.516;2022-09-01T03:20:59;21.80;53.30
72905;DHT22;61048;52.162;4.516;2022-09-01T03:23:27;21.80;53.20
72905;DHT22;61048;52.162;4.516;2022-09-01T03:25:54;21.80;53.20
72905;DHT22;61048;52.162;4.516;2022-09-01T03:28:21;21.80;53.20
72905;DHT22;61048;52.162;4.516;2022-09-01T03:30:49;21.80;53.20
72905;DHT22;61048;52.162;4.516;2022-09-01T03:33:20;21.70;53.30
72905;DHT22;61048;52.162;4.516;2022-09-01T03:35:47;21.80;53.20
72905;DHT22;61048;52.162;4.516;2022-09-01T03:38:16;21.70;53.20
72905;DHT22;61048;52.162;4.516;2022-09-01T03:40:46;21.70;53.20
72905;DHT22;61048;52.162;4.516;2022-09-01T03:43:13;21.70;53.30
72905;DHT22;61048;52.162;4.516;2022-09-01T03:45:41;21.70;53.30
72905;DHT22;61048;52.162;4.516;2022-09-01T03:48:11;21.70;53.30
72905;DHT22;61048;52.162;4.516;2022-09-01T03:50:43;21.70;53.20
72905;DHT22;61048;52.162;4.516;2022-09-01T03:53:13;21.70;53.30
72905;DHT22;61048;52.162;4.516;2022-09-01T03:55:43;21.70;53.30
72905;DHT22;61048;52.162;4.516;2022-09-01T03:58:11;21.70;53.20
72905;DHT22;61048;52.162;4.516;2022-09-01T04:00:41;21.70;53.30
72905;DHT22;61048;52.162;4.516;2022-09-01T04:03:10;21.70;53.30
72905;DHT22;61048;52.162;4.516;2022-09-01T04:05:38;21.70;53.30
72905;DHT22;61048;52.162;4.516;2022-09-01T04:08:07;21.70;53.30
72905;DHT22;61048;52.162;4.516;2022-09-01T04:10:40;21.70;53.30
72905;DHT22;61048;52.162;4.516;2022-09-01T04:13:10;21.70;53.30
72905;DHT22;61048;52.162;4.516;2022-09-01T04:15:38;21.70;53.30
72905;DHT22;61048;52.162;4.516;2022-09-01T04:18:05;21.70;53.20
72905;DHT22;61048;52.162;4.516;2022-09-01T04:20:34;21.60;53.30
72905;DHT22;61048;52.162;4.516;2022-09-01T04:23:13;21.60;53.20
72905;DHT22;61048;52.162;4.516;2022-09-01T04:25:46;21.70;53.30
72905;DHT22;61048;52.162;4.516;2022-09-01T04:28:17;21.60;53.30
72905;DHT22;61048;52.162;4.516;2022-09-01T04:30:54;21.60;53.30
72905;DHT22;61048;52.162;4.516;2022-09-01T04:33:22;21.60;53.30
72905;DHT22;61048;52.162;4.516;2022-09-01T04:35:50;21.60;53.30
72905;DHT22;61048;52.162;4.516;2022-09-01T04:38:23;21.60;53.20
72905;DHT22;61048;52.162;4.516;2022-09-01T04:40:50;21.60;53.20
72905;DHT22;61048;52.162;4.516;2022-09-01T04:43:19;21.60;53.20
72905;DHT22;61048;52.162;4.516;2022-09-01T04:45:46;21.60;53.20
72905;DHT22;61048;52.162;4.516;2022-09-01T04:48:17;21.60;53.20
72905;DHT22;61048;52.162;4.516;2022-09-01T04:50:44;21.60;53.10
72905;DHT22;61048;52.162;4.516;2022-09-01T04:53:14;21.60;52.90
72905;DHT22;61048;52.162;4.516;2022-09-01T04:55:43;21.60;52.80
72905;DHT22;61048;52.162;4.516;2022-09-01T04:58:12;21.50;52.80
72905;DHT22;61048;52.162;4.516;2022-09-01T05:00:43;21.50;52.80
72905;DHT22;61048;52.162;4.516;2022-09-01T05:03:13;21.50;52.70
72905;DHT22;61048;52.162;4.516;2022-09-01T05:05:46;21.50;52.70
72905;DHT22;61048;52.162;4.516;2022-09-01T05:08:14;21.50;52.60
72905;DHT22;61048;52.162;4.516;2022-09-01T05:10:45;21.50;52.60
72905;DHT22;61048;52.162;4.516;2022-09-01T05:13:18;21.50;52.70
72905;DHT22;61048;52.162;4.516;2022-09-01T05:16:00;21.50;53.30
72905;DHT22;61048;52.162;4.516;2022-09-01T05:18:27;21.60;53.00
72905;DHT22;61048;52.162;4.516;2022-09-01T05:20:54;21.50;52.80
72905;DHT22;61048;52.162;4.516;2022-09-01T05:23:22;21.50;52.70
72905;DHT22;61048;52.162;4.516;2022-09-01T05:25:51;21.50;52.70
72905;DHT22;61048;52.162;4.516;2022-09-01T05:28:20;21.50;52.50
72905;DHT22;61048;52.162;4.516;2022-09-01T05:30:51;21.50;52.40
72905;DHT22;61048;52.162;4.516;2022-09-01T05:33:19;21.50;52.30
72905;DHT22;61048;52.162;4.516;2022-09-01T05:35:52;21.50;52.30
72905;DHT22;61048;52.162;4.516;2022-09-01T05:38:20;21.60;52.10
72905;DHT22;61048;52.162;4.516;2022-09-01T05:40:55;21.50;52.00
72905;DHT22;61048;52.162;4.516;2022-09-01T05:43:22;21.50;51.90
72905;DHT22;61048;52.162;4.516;2022-09-01T05:45:54;21.50;51.80
72905;DHT22;61048;52.162;4.516;2022-09-01T05:48:23;21.50;51.90
72905;DHT22;61048;52.162;4.516;2022-09-01T05:50:50;21.30;52.50
72905;DHT22;61048;52.162;4.516;2022-09-01T05:53:22;21.10;53.00
72905;DHT22;61048;52.162;4.516;2022-09-01T05:55:51;20.70;53.10
72905;DHT22;61048;52.162;4.516;2022-09-01T05:58:22;20.40;52.80
72905;DHT22;61048;52.162;4.516;2022-09-01T06:00:51;20.40;52.40
72905;DHT22;61048;52.162;4.516;2022-09-01T06:03:20;20.20;52.20
72905;DHT22;61048;52.162;4.516;2022-09-01T06:05:49;19.90;52.60
72905;DHT22;61048;52.162;4.516;2022-09-01T06:08:19;20.00;52.70
72905;DHT22;61048;52.162;4.516;2022-09-01T06:10:50;20.10;52.20
72905;DHT22;61048;52.162;4.516;2022-09-01T06:13:19;20.00;52.40
72905;DHT22;61048;52.162;4.516;2022-09-01T06:15:47;20.00;52.20
72905;DHT22;61048;52.162;4.516;2022-09-01T06:18:15;20.00;52.10
72905;DHT22;61048;52.162;4.516;2022-09-01T06:20:46;20.00;52.10
72905;DHT22;61048;52.162;4.516;2022-09-01T06:23:14;19.80;52.50
72905;DHT22;61048;52.162;4.516;2022-09-01T06:25:43;19.90;52.50
72905;DHT22;61048;52.162;4.516;2022-09-01T06:28:11;19.90;52.30
72905;DHT22;61048;52.162;4.516;2022-09-01T06:30:39;20.00;52.00
72905;DHT22;61048;52.162;4.516;2022-09-01T06:33:07;19.90;52.20
72905;DHT22;61048;52.162;4.516;2022-09-01T06:35:35;19.90;52.70
72905;DHT22;61048;52.162;4.516;2022-09-01T06:38:04;19.90;52.60
72905;DHT22;61048;52.162;4.516;2022-09-01T06:40:32;19.90;52.70
72905;DHT22;61048;52.162;4.516;2022-09-01T06:42:59;20.00;52.50
72905;DHT22;61048;52.162;4.516;2022-09-01T06:45:33;20.40;51.90
72905;DHT22;61048;52.162;4.516;2022-09-01T06:48:00;20.50;51.40
72905;DHT22;61048;52.162;4.516;2022-09-01T06:50:26;20.40;51.90
72905;DHT22;61048;52.162;4.516;2022-09-01T06:52:54;20.60;51.50
72905;DHT22;61048;52.162;4.516;2022-09-01T06:55:37;21.00;50.70
72905;DHT22;61048;52.162;4.516;2022-09-01T06:58:04;21.50;49.40
72905;DHT22;61048;52.162;4.516;2022-09-01T07:00:32;22.00;48.40
72905;DHT22;61048;52.162;4.516;2022-09-01T07:03:06;22.40;47.50
72905;DHT22;61048;52.162;4.516;2022-09-01T07:05:37;23.10;46.30
72905;DHT22;61048;52.162;4.516;2022-09-01T07:08:05;23.10;45.80
72905;DHT22;61048;52.162;4.516;2022-09-01T07:10:41;23.10;45.90
72905;DHT22;61048;52.162;4.516;2022-09-01T07:13:10;24.50;43.70
72905;DHT22;61048;52.162;4.516;2022-09-01T07:15:41;25.80;41.60
72905;DHT22;61048;52.162;4.516;2022-09-01T07:18:09;26.40;40.30
72905;DHT22;61048;52.162;4.516;2022-09-01T07:20:40;27.00;39.10
72905;DHT22;61048;52.162;4.516;2022-09-01T07:23:07;27.30;38.80
72905;DHT22;61048;52.162;4.516;2022-09-01T07:25:37;27.80;38.00
72905;DHT22;61048;52.162;4.516;2022-09-01T07:28:07;27.70;37.70
72905;DHT22;61048;52.162;4.516;2022-09-01T07:30:40;27.80;37.80
72905;DHT22;61048;52.162;4.516;2022-09-01T07:33:08;28.20;37.50
72905;DHT22;61048;52.162;4.516;2022-09-01T07:35:38;28.50;36.60
72905;DHT22;61048;52.162;4.516;2022-09-01T07:38:05;28.20;36.90
72905;DHT22;61048;52.162;4.516;2022-09-01T07:40:35;28.40;36.70
72905;DHT22;61048;52.162;4.516;2022-09-01T07:43:04;28.20;36.90
72905;DHT22;61048;52.162;4.516;2022-09-01T07:45:35;27.70;37.90
72905;DHT22;61048;52.162;4.516;2022-09-01T07:48:06;28.30;37.10
72905;DHT22;61048;52.162;4.516;2022-09-01T07:50:36;28.90;36.40
72905;DHT22;61048;52.162;4.516;2022-09-01T07:53:06;29.00;35.80
72905;DHT22;61048;52.162;4.516;2022-09-01T07:55:33;28.90;35.80
72905;DHT22;61048;52.162;4.516;2022-09-01T07:58:00;29.30;35.50
72905;DHT22;61048;52.162;4.516;2022-09-01T08:00:27;29.20;35.60
72905;DHT22;61048;52.162;4.516;2022-09-01T08:02:57;29.70;35.00
72905;DHT22;61048;52.162;4.516;2022-09-01T08:05:24;30.00;34.60
72905;DHT22;61048;52.162;4.516;2022-09-01T08:07:53;30.20;34.40
72905;DHT22;61048;52.162;4.516;2022-09-01T08:10:21;29.80;34.70
72905;DHT22;61048;52.162;4.516;2022-09-01T08:12:48;27.90;36.80
72905;DHT22;61048;52.162;4.516;2022-09-01T08:15:15;27.20;37.80
72905;DHT22;61048;52.162;4.516;2022-09-01T08:17:43;26.40;39.10
72905;DHT22;61048;52.162;4.516;2022-09-01T08:20:12;26.00;39.60
72905;DHT22;61048;52.162;4.516;2022-09-01T08:22:39;25.80;40.20
72905;DHT22;61048;52.162;4.516;2022-09-01T08:25:07;25.90;40.00
72905;DHT22;61048;52.162;4.516;2022-09-01T08:27:34;26.00;39.80
72905;DHT22;61048;52.162;4.516;2022-09-01T08:30:04;25.90;39.90
72905;DHT22;61048;52.162;4.516;2022-09-01T08:32:31;25.20;40.60
72905;DHT22;61048;52.162;4.516;2022-09-01T08:34:59;25.00;41.30
72905;DHT22;61048;52.162;4.516;2022-09-01T08:37:27;25.70;40.40
72905;DHT22;61048;52.162;4.516;2022-09-01T08:39:54;26.30;39.60
72905;DHT22;61048;52.162;4.516;2022-09-01T08:42:34;26.50;39.20
72905;DHT22;61048;52.162;4.516;2022-09-01T08:45:06;26.30;39.50
72905;DHT22;61048;52.162;4.516;2022-09-01T08:47:37;25.90;40.00
72905;DHT22;61048;52.162;4.516;2022-09-01T08:50:05;25.50;40.70
72905;DHT22;61048;52.162;4.516;2022-09-01T08:52:36;25.20;41.30
72905;DHT22;61048;52.162;4.516;2022-09-01T08:55:08;25.30;41.20
72905;DHT22;61048;52.162;4.516;2022-09-01T08:57:39;25.40;41.20
72905;DHT22;61048;52.162;4.516;2022-09-01T09:00:09;25.20;41.10
72905;DHT22;61048;52.162;4.516;2022-09-01T09:02:44;25.20;41.20
72905;DHT22;61048;52.162;4.516;2022-09-01T09:05:27;25.20;41.40
72905;DHT22;61048;52.162;4.516;2022-09-01T09:11:02;25.20;41.20
72905;DHT22;61048;52.162;4.516;2022-09-01T09:13:38;24.80;42.10
72905;DHT22;61048;52.162;4.516;2022-09-01T09:16:11;24.80;42.20
72905;DHT22;61048;52.162;4.516;2022-09-01T09:18:43;24.90;42.10
72905;DHT22;61048;52.162;4.516;2022-09-01T09:21:17;24.90;42.00
72905;DHT22;61048;52.162;4.516;2022-09-01T09:23:49;24.80;42.10
72905;DHT22;61048;52.162;4.516;2022-09-01T09:26:20;24.80;42.10
72905;DHT22;61048;52.162;4.516;2022-09-01T09:28:48;24.70;42.40
72905;DHT22;61048;52.162;4.516;2022-09-01T09:31:26;24.60;42.40
72905;DHT22;61048;52.162;4.516;2022-09-01T09:33:53;24.40;42.90
72905;DHT22;61048;52.162;4.516;2022-09-01T09:36:24;24.30;42.90
72905;DHT22;61048;52.162;4.516;2022-09-01T09:39:05;24.20;42.90
72905;DHT22;61048;52.162;4.516;2022-09-01T09:41:33;23.80;43.70
72905;DHT22;61048;52.162;4.516;2022-09-01T09:44:05;23.90;43.60
72905;DHT22;61048;52.162;4.516;2022-09-01T09:46:36;24.00;43.60
72905;DHT22;61048;52.162;4.516;2022-09-01T09:49:12;24.00;43.40
72905;DHT22;61048;52.162;4.516;2022-09-01T09:51:41;24.00;43.30
72905;DHT22;61048;52.162;4.516;2022-09-01T09:54:26;23.90;43.20
72905;DHT22;61048;52.162;4.516;2022-09-01T09:57:09;23.90;43.70
72905;DHT22;61048;52.162;4.516;2022-09-01T09:59:40;23.90;44.00
72905;DHT22;61048;52.162;4.516;2022-09-01T10:02:24;23.90;44.70
72905;DHT22;61048;52.162;4.516;2022-09-01T10:04:53;23.90;44.50
72905;DHT22;61048;52.162;4.516;2022-09-01T10:07:29;23.90;44.60
72905;DHT22;61048;52.162;4.516;2022-09-01T10:09:59;23.80;44.50
72905;DHT22;61048;52.162;4.516;2022-09-01T10:12:29;23.80;44.60
72905;DHT22;61048;52.162;4.516;2022-09-01T10:15:00;23.80;44.50
72905;DHT22;61048;52.162;4.516;2022-09-01T10:17:31;23.80;44.50
72905;DHT22;61048;52.162;4.516;2022-09-01T10:20:04;23.80;44.60
72905;DHT22;61048;52.162;4.516;2022-09-01T10:22:33;23.80;44.50
72905;DHT22;61048;52.162;4.516;2022-09-01T10:25:02;23.70;44.70
72905;DHT22;61048;52.162;4.516;2022-09-01T10:27:34;23.70;44.60
72905;DHT22;61048;52.162;4.516;2022-09-01T10:30:05;23.70;44.70
72905;DHT22;61048;52.162;4.516;2022-09-01T10:32:38;23.70;44.60
72905;DHT22;61048;52.162;4.516;2022-09-01T10:35:07;23.70;44.60
72905;DHT22;61048;52.162;4.516;2022-09-01T10:37:36;23.70;44.70
72905;DHT22;61048;52.162;4.516;2022-09-01T10:40:34;23.60;44.60
72905;DHT22;61048;52.162;4.516;2022-09-01T10:43:23;23.60;44.60
72905;DHT22;61048;52.162;4.516;2022-09-01T10:45:52;23.60;44.50
72905;DHT22;61048;52.162;4.516;2022-09-01T10:48:27;23.60;44.60
72905;DHT22;61048;52.162;4.516;2022-09-01T10:51:42;23.60;44.60
72905;DHT22;61048;52.162;4.516;2022-09-01T10:57:35;23.60;44.70
72905;DHT22;61048;52.162;4.516;2022-09-01T11:00:47;23.60;44.60
72905;DHT22;61048;52.162;4.516;2022-09-01T11:06:43;23.50;44.80
72905;DHT22;61048;52.162;4.516;2022-09-01T11:09:20;23.50;44.50
72905;DHT22;61048;52.162;4.516;2022-09-01T11:11:54;23.50;43.10
72905;DHT22;61048;52.162;4.516;2022-09-01T11:14:28;23.40;42.90
72905;DHT22;61048;52.162;4.516;2022-09-01T11:17:17;23.40;43.50
72905;DHT22;61048;52.162;4.516;2022-09-01T11:19:46;23.40;42.70
72905;DHT22;61048;52.162;4.516;2022-09-01T11:22:24;23.40;43.10
72905;DHT22;61048;52.162;4.516;2022-09-01T11:28:36;23.50;42.50
72905;DHT22;61048;52.162;4.516;2022-09-01T11:31:25;23.50;42.90
72905;DHT22;61048;52.162;4.516;2022-09-01T11:34:19;23.50;42.90
72905;DHT22;61048;52.162;4.516;2022-09-01T11:36:57;23.50;42.80
72905;DHT22;61048;52.162;4.516;2022-09-01T11:39:34;23.50;42.30
72905;DHT22;61048;52.162;4.516;2022-09-01T11:42:06;23.50;43.00
72905;DHT22;61048;52.162;4.516;2022-09-01T11:44:38;23.50;42.40
72905;DHT22;61048;52.162;4.516;2022-09-01T11:47:10;23.50;41.80
72905;DHT22;61048;52.162;4.516;2022-09-01T11:49:50;23.50;42.20
72905;DHT22;61048;52.162;4.516;2022-09-01T11:52:20;23.60;43.00
72905;DHT22;61048;52.162;4.516;2022-09-01T11:54:48;23.60;42.20
72905;DHT22;61048;52.162;4.516;2022-09-01T11:57:21;23.50;41.60
72905;DHT22;61048;52.162;4.516;2022-09-01T11:59:48;23.60;41.90
72905;DHT22;61048;52.162;4.516;2022-09-01T12:02:20;23.60;41.60
72905;DHT22;61048;52.162;4.516;2022-09-01T12:04:49;23.60;41.00
72905;DHT22;61048;52.162;4.516;2022-09-01T12:07:38;23.60;40.20
72905;DHT22;61048;52.162;4.516;2022-09-01T12:10:14;23.60;40.40
72905;DHT22;61048;52.162;4.516;2022-09-01T12:12:42;23.60;39.70
72905;DHT22;61048;52.162;4.516;2022-09-01T12:15:18;23.50;39.50
72905;DHT22;61048;52.162;4.516;2022-09-01T12:17:45;23.60;40.20
72905;DHT22;61048;52.162;4.516;2022-09-01T12:20:23;23.60;40.30
72905;DHT22;61048;52.162;4.516;2022-09-01T12:22:50;23.60;40.10
72905;DHT22;61048;52.162;4.516;2022-09-01T12:25:20;23.70;39.50
72905;DHT22;61048;52.162;4.516;2022-09-01T12:27:48;23.70;38.90
72905;DHT22;61048;52.162;4.516;2022-09-01T12:30:15;23.60;38.70
72905;DHT22;61048;52.162;4.516;2022-09-01T12:32:42;23.60;38.80
72905;DHT22;61048;52.162;4.516;2022-09-01T12:35:15;23.60;39.10
72905;DHT22;61048;52.162;4.516;2022-09-01T12:37:45;23.60;38.90
72905;DHT22;61048;52.162;4.516;2022-09-01T12:40:30;23.60;38.70
72905;DHT22;61048;52.162;4.516;2022-09-01T12:42:58;23.60;38.60
72905;DHT22;61048;52.162;4.516;2022-09-01T12:45:39;23.60;38.70
72905;DHT22;61048;52.162;4.516;2022-09-01T12:48:06;23.70;38.70
72905;DHT22;61048;52.162;4.516;2022-09-01T12:50:48;23.60;38.40
72905;DHT22;61048;52.162;4.516;2022-09-01T12:53:22;23.70;38.40
72905;DHT22;61048;52.162;4.516;2022-09-01T12:56:02;23.70;38.60
72905;DHT22;61048;52.162;4.516;2022-09-01T12:58:30;23.70;38.30
72905;DHT22;61048;52.162;4.516;2022-09-01T13:01:00;23.70;38.10
72905;DHT22;61048;52.162;4.516;2022-09-01T13:03:29;23.70;38.20
72905;DHT22;61048;52.162;4.516;2022-09-01T13:05:57;23.70;38.00
72905;DHT22;61048;52.162;4.516;2022-09-01T13:08:28;23.70;38.10
72905;DHT22;61048;52.162;4.516;2022-09-01T13:10:57;23.70;37.90
72905;DHT22;61048;52.162;4.516;2022-09-01T13:13:25;23.70;38.20
72905;DHT22;61048;52.162;4.516;2022-09-01T13:15:55;23.80;38.20
72905;DHT22;61048;52.162;4.516;2022-09-01T13:18:25;23.80;38.00
72905;DHT22;61048;52.162;4.516;2022-09-01T13:20:52;23.80;37.80
72905;DHT22;61048;52.162;4.516;2022-09-01T13:23:19;23.80;37.90
72905;DHT22;61048;52.162;4.516;2022-09-01T13:25:48;23.80;37.80
72905;DHT22;61048;52.162;4.516;2022-09-01T13:28:16;23.80;38.00
72905;DHT22;61048;52.162;4.516;2022-09-01T13:30:44;23.80;38.30
72905;DHT22;61048;52.162;4.516;2022-09-01T13:33:13;23.80;38.10
72905;DHT22;61048;52.162;4.516;2022-09-01T13:35:40;23.80;38.10
72905;DHT22;61048;52.162;4.516;2022-09-01T13:38:07;23.80;38.30
72905;DHT22;61048;52.162;4.516;2022-09-01T13:40:34;23.90;37.90
72905;DHT22;61048;52.162;4.516;2022-09-01T13:43:02;23.80;38.00
72905;DHT22;61048;52.162;4.516;2022-09-01T13:45:30;23.90;38.20
72905;DHT22;61048;52.162;4.516;2022-09-01T13:47:57;23.90;37.90
72905;DHT22;61048;52.162;4.516;2022-09-01T13:50:25;23.80;37.70
72905;DHT22;61048;52.162;4.516;2022-09-01T13:52:55;23.80;37.60
72905;DHT22;61048;52.162;4.516;2022-09-01T13:55:24;23.90;37.80
72905;DHT22;61048;52.162;4.516;2022-09-01T13:57:52;23.90;37.30
72905;DHT22;61048;52.162;4.516;2022-09-01T14:00:22;24.00;37.50
72905;DHT22;61048;52.162;4.516;2022-09-01T14:02:51;24.00;37.00
72905;DHT22;61048;52.162;4.516;2022-09-01T14:05:20;23.90;36.70
72905;DHT22;61048;52.162;4.516;2022-09-01T14:07:48;24.00;37.00
72905;DHT22;61048;52.162;4.516;2022-09-01T14:10:15;23.90;36.70
72905;DHT22;61048;52.162;4.516;2022-09-01T14:12:42;23.90;36.60
72905;DHT22;61048;52.162;4.516;2022-09-01T14:15:11;24.00;36.50
72905;DHT22;61048;52.162;4.516;2022-09-01T14:17:40;24.00;36.70
72905;DHT22;61048;52.162;4.516;2022-09-01T14:20:10;24.00;36.40
72905;DHT22;61048;52.162;4.516;2022-09-01T14:22:37;24.00;35.80
72905;DHT22;61048;52.162;4.516;2022-09-01T14:25:06;24.00;36.10
72905;DHT22;61048;52.162;4.516;2022-09-01T14:27:33;24.00;36.20
72905;DHT22;61048;52.162;4.516;2022-09-01T14:30:00;24.00;35.80
72905;DHT22;61048;52.162;4.516;2022-09-01T14:32:27;24.00;35.90
72905;DHT22;61048;52.162;4.516;2022-09-01T14:34:56;24.00;36.10
72905;DHT22;61048;52.162;4.516;2022-09-01T14:37:24;24.00;36.10
72905;DHT22;61048;52.162;4.516;2022-09-01T14:39:51;24.00;36.30
72905;DHT22;61048;52.162;4.516;2022-09-01T14:42:18;24.00;36.60
72905;DHT22;61048;52.162;4.516;2022-09-01T14:44:46;24.10;36.70
72905;DHT22;61048;52.162;4.516;2022-09-01T14:47:14;24.10;36.80
72905;DHT22;61048;52.162;4.516;2022-09-01T14:49:42;24.10;36.90
72905;DHT22;61048;52.162;4.516;2022-09-01T14:52:10;24.10;37.00
72905;DHT22;61048;52.162;4.516;2022-09-01T14:54:40;24.20;37.00
72905;DHT22;61048;52.162;4.516;2022-09-01T14:57:08;24.20;37.10
72905;DHT22;61048;52.162;4.516;2022-09-01T14:59:36;24.30;36.40
72905;DHT22;61048;52.162;4.516;2022-09-01T15:02:03;24.20;36.30
72905;DHT22;61048;52.162;4.516;2022-09-01T15:04:30;24.20;36.40
72905;DHT22;61048;52.162;4.516;2022-09-01T15:06:57;24.20;36.90
72905;DHT22;61048;52.162;4.516;2022-09-01T15:09:25;24.20;37.10
72905;DHT22;61048;52.162;4.516;2022-09-01T15:11:52;24.20;37.30
72905;DHT22;61048;52.162;4.516;2022-09-01T15:14:19;24.20;37.70
72905;DHT22;61048;52.162;4.516;2022-09-01T15:16:46;24.20;37.60
72905;DHT22;61048;52.162;4.516;2022-09-01T15:19:13;24.20;37.50
72905;DHT22;61048;52.162;4.516;2022-09-01T15:21:42;24.20;37.60
72905;DHT22;61048;52.162;4.516;2022-09-01T15:24:09;24.30;37.60
72905;DHT22;61048;52.162;4.516;2022-09-01T15:26:38;24.30;37.70
72905;DHT22;61048;52.162;4.516;2022-09-01T15:29:06;24.40;37.70
72905;DHT22;61048;52.162;4.516;2022-09-01T15:31:34;24.40;37.90
72905;DHT22;61048;52.162;4.516;2022-09-01T15:34:02;24.50;38.10
72905;DHT22;61048;52.162;4.516;2022-09-01T15:36:30;24.50;37.90
72905;DHT22;61048;52.162;4.516;2022-09-01T15:39:00;24.50;37.90
72905;DHT22;61048;52.162;4.516;2022-09-01T15:41:29;24.50;37.80
72905;DHT22;61048;52.162;4.516;2022-09-01T15:43:57;24.50;37.60
72905;DHT22;61048;52.162;4.516;2022-09-01T15:46:24;24.50;38.00
72905;DHT22;61048;52.162;4.516;2022-09-01T15:48:56;24.50;37.80
72905;DHT22;61048;52.162;4.516;2022-09-01T15:51:30;24.50;37.80
72905;DHT22;61048;52.162;4.516;2022-09-01T15:53:59;24.50;37.80
72905;DHT22;61048;52.162;4.516;2022-09-01T15:56:26;24.50;37.90
72905;DHT22;61048;52.162;4.516;2022-09-01T15:58:53;24.50;37.60
72905;DHT22;61048;52.162;4.516;2022-09-01T16:01:21;24.50;37.60
72905;DHT22;61048;52.162;4.516;2022-09-01T16:03:48;24.50;37.50